Time;durP1;ratioP1;P1;durP2;ratioP2;P2;SDS_P1;SDS_P2;PMS_P1;PMS_P2;Temp;Humidity;BMP_temperature;BMP_pressure;BME280_temperature;BME280_humidity;BME280_pressure;Samples;Min_cycle;Max_cycle;Signal;HPM_P1;HPM_P2
2023/10/17 00:01:14;;;;;;;4.87;1.63;;;9.40;99.90;;;;;;5088890;27;20472;-36
2023/10/17 00:03:40;;;;;;;2.47;1.10;;;9.40;99.90;;;;;;5135047;27;20064;-36
2023/10/17 00:06:08;;;;;;;1.27;0.88;;;9.40;99.90;;;;;;5103163;27;20028;-36
2023/10/17 00:08:34;;;;;;;2.08;0.93;;;9.40;99.90;;;;;;5122858;27;20079;-36
2023/10/17 00:11:16;;;;;;;2.28;0.95;;;9.40;99.90;;;;;;5115014;27;20046;-36
2023/10/17 00:13:52;;;;;;;3.47;1.27;;;9.40;99.90;;;;;;5121823;27;20075;-36
2023/10/17 00:16:24;;;;;;;1.20;0.90;;;9.40;99.90;;;;;;5109225;27;20472;-36
2023/10/17 00:18:50;;;;;;;2.10;1.02;;;9.40;99.90;;;;;;5120447;27;20477;-37
2023/10/17 00:21:22;;;;;;;1.70;1.02;;;9.40;99.90;;;;;;5117289;27;20017;-36
2023/10/17 00:23:51;;;;;;;;;;;9.40;99.90;;;;;;5112133;27;20027;-36
2023/10/17 00:26:18;;;;;;;3.17;1.10;;;9.40;99.90;;;;;;5124572;27;19914;-36
2023/10/17 00:28:49;;;;;;;4.18;1.05;;;9.30;99.90;;;;;;5100120;27;20030;-36
2023/10/17 00:31:20;;;;;;;1.98;1.20;;;9.30;99.90;;;;;;5134121;27;20029;-36
2023/10/17 00:33:57;;;;;;;3.63;1.75;;;9.30;99.90;;;;;;5095551;27;20066;-35
2023/10/17 00:36:33;;;;;;;2.75;0.90;;;9.40;99.90;;;;;;5134637;27;20045;-36
2023/10/17 00:39:11;;;;;;;3.65;1.00;;;9.30;99.90;;;;;;5096901;27;20026;-36
2023/10/17 00:41:51;;;;;;;1.67;1.00;;;9.30;99.90;;;;;;5133878;27;20035;-36
2023/10/17 00:44:27;;;;;;;1.00;0.80;;;9.30;99.90;;;;;;5101586;27;20019;-37
2023/10/17 00:46:53;;;;;;;2.47;1.05;;;9.30;99.90;;;;;;5129392;27;20045;-36
2023/10/17 00:49:21;;;;;;;2.40;1.20;;;9.30;99.90;;;;;;5094827;27;20030;-35
2023/10/17 00:51:48;;;;;;;2.65;1.17;;;9.30;99.90;;;;;;5137454;27;20015;-36
2023/10/17 00:54:14;;;;;;;3.95;1.17;;;9.30;99.90;;;;;;5086082;27;20560;-36
2023/10/17 00:56:43;;;;;;;2.95;1.20;;;9.30;99.90;;;;;;5089371;27;20579;-35
2023/10/17 00:59:09;;;;;;;2.10;1.10;;;9.30;99.90;;;;;;5044333;27;20115;-36
2023/10/17 01:01:35;;;;;;;1.67;1.00;;;9.30;99.90;;;;;;5077631;27;20019;-36
2023/10/17 01:04:01;;;;;;;4.63;0.88;;;9.30;99.90;;;;;;5066365;27;20533;-35
2023/10/17 01:08:56;;;;;;;1.50;0.93;;;9.30;99.90;;;;;;5078473;27;20040;-35
2023/10/17 01:11:22;;;;;;;1.38;0.90;;;9.30;99.90;;;;;;5052221;27;20060;-37
2023/10/17 01:13:54;;;;;;;2.67;1.05;;;9.30;99.90;;;;;;5091789;27;20056;-36
2023/10/17 01:16:21;;;;;;;2.60;1.20;;;9.20;99.90;;;;;;5046606;27;20535;-36
2023/10/17 01:18:47;;;;;;;2.55;1.10;;;9.20;99.90;;;;;;5098262;27;20025;-36
2023/10/17 01:21:20;;;;;;;5.07;1.00;;;9.20;99.90;;;;;;5046584;27;20456;-36
2023/10/17 01:23:52;;;;;;;3.95;1.05;;;9.20;99.90;;;;;;5098544;27;20026;-36
2023/10/17 01:26:23;;;;;;;1.10;0.90;;;9.20;99.90;;;;;;5046618;27;20021;-36
2023/10/17 01:28:50;;;;;;;2.65;1.23;;;9.20;99.90;;;;;;5098794;27;20025;-37
2023/10/17 01:31:22;;;;;;;3.05;1.73;;;9.20;99.90;;;;;;5043624;27;20025;-36
2023/10/17 01:33:51;;;;;;;3.78;1.20;;;9.20;99.90;;;;;;5085563;27;20552;-36
2023/10/17 01:36:19;;;;;;;1.60;1.15;;;9.20;99.90;;;;;;5148164;27;20082;-35
2023/10/17 01:38:50;;;;;;;2.72;1.00;;;9.20;99.90;;;;;;5081486;27;20022;-36
2023/10/17 01:41:18;;;;;;;2.58;1.20;;;9.20;99.90;;;;;;5148574;27;20030;-35
2023/10/17 01:43:53;;;;;;;1.92;1.17;;;9.20;99.90;;;;;;5082411;27;20033;-35
2023/10/17 01:46:21;;;;;;;3.53;1.48;;;9.20;99.90;;;;;;5147538;27;20470;-35
2023/10/17 01:48:54;;;;;;;1.08;0.73;;;9.20;99.90;;;;;;5082616;27;20425;-36
2023/10/17 01:51:19;;;;;;;1.70;1.17;;;9.20;99.90;;;;;;5148790;27;20102;-35
2023/10/17 01:53:51;;;;;;;3.30;1.30;;;9.20;99.90;;;;;;5090015;27;20119;-35
2023/10/17 01:56:29;;;;;;;2.67;1.50;;;9.20;99.90;;;;;;5100486;27;20025;-35
2023/10/17 01:59:17;;;;;;;1.98;1.25;;;9.20;99.90;;;;;;5100259;27;20054;-36
2023/10/17 02:01:48;;;;;;;2.05;1.10;;;9.20;99.90;;;;;;5023974;28;20029;-35
2023/10/17 02:04:18;;;;;;;3.92;1.58;;;9.20;99.90;;;;;;5102413;27;20023;-36
2023/10/17 02:06:44;;;;;;;2.85;1.70;;;9.20;99.90;;;;;;5023178;28;20053;-35
2023/10/17 02:09:44;;;;;;;6.38;2.35;;;9.20;99.90;;;;;;5088833;27;20023;-36
2023/10/17 02:12:11;;;;;;;4.20;2.00;;;9.20;99.90;;;;;;5022716;28;20381;-36
2023/10/17 02:14:39;;;;;;;3.20;2.20;;;9.20;99.90;;;;;;5104135;27;20537;-35
2023/10/17 02:17:05;;;;;;;2.40;1.80;;;9.20;99.90;;;;;;5023019;28;20145;-35
2023/10/17 02:19:36;;;;;;;4.13;2.03;;;9.20;99.90;;;;;;5089361;27;20754;-35
2023/10/17 02:22:02;;;;;;;5.30;2.33;;;9.20;99.90;;;;;;5050450;27;20037;-35
2023/10/17 02:24:32;;;;;;;5.25;2.22;;;9.10;99.90;;;;;;5085833;27;20019;-36
2023/10/17 02:27:00;;;;;;;4.57;2.45;;;9.20;99.90;;;;;;5061424;27;20025;-36
2023/10/17 02:29:29;;;;;;;3.55;2.22;;;9.20;99.90;;;;;;5063583;27;20539;-37
2023/10/17 02:31:55;;;;;;;4.88;2.10;;;9.10;99.90;;;;;;5118814;27;20106;-43
2023/10/17 02:34:34;;;;;;;5.57;2.35;;;9.10;99.90;;;;;;5124132;27;20857;-36
2023/10/17 02:37:00;;;;;;;4.03;2.17;;;9.10;99.90;;;;;;5074161;27;20056;-35
2023/10/17 02:39:37;;;;;;;5.18;2.13;;;9.10;99.90;;;;;;5061910;27;20029;-36
2023/10/17 02:42:12;;;;;;;5.22;2.20;;;9.10;99.90;;;;;;5078306;27;20060;-37
2023/10/17 02:44:43;;;;;;;3.20;2.20;;;9.10;99.90;;;;;;5063085;27;20107;-36
2023/10/17 02:47:12;;;;;;;2.45;1.70;;;9.10;99.90;;;;;;5083169;27;20396;-35
2023/10/17 02:49:38;;;;;;;3.55;2.03;;;9.10;99.90;;;;;;5048774;27;20705;-35
2023/10/17 02:52:07;;;;;;;5.47;2.22;;;9.20;99.90;;;;;;5094343;27;20046;-35
2023/10/17 02:54:48;;;;;;;5.00;1.90;;;9.20;99.90;;;;;;5139503;27;20148;-37
2023/10/17 02:57:16;;;;;;;3.67;1.80;;;9.20;99.90;;;;;;5117709;27;20043;-36
2023/10/17 02:59:45;;;;;;;5.30;1.88;;;9.20;99.90;;;;;;5139942;27;20451;-35
2023/10/17 03:02:11;;;;;;;4.72;2.30;;;9.20;99.90;;;;;;5087610;27;20022;-37
2023/10/17 03:04:41;;;;;;;2.92;2.15;;;9.20;99.90;;;;;;5139169;27;20031;-36
2023/10/17 03:07:08;;;;;;;4.07;2.28;;;9.20;99.90;;;;;;5087851;27;20503;-35
2023/10/17 03:09:36;;;;;;;3.80;2.30;;;9.20;99.90;;;;;;5145212;27;20039;-35
2023/10/17 03:15:18;;;;;;;3.05;2.10;;;9.10;99.90;;;;;;5147033;27;20031;-35
2023/10/17 03:17:28;;;;;;;3.05;2.28;;;9.20;99.90;;;;;;5087549;27;20117;-35
2023/10/17 03:19:57;;;;;;;3.72;2.30;;;9.20;99.90;;;;;;5146152;27;20038;-35
2023/10/17 03:22:27;;;;;;;3.83;2.35;;;9.10;99.90;;;;;;5080755;27;20378;-35
2023/10/17 03:25:09;;;;;;;4.07;2.53;;;9.10;99.90;;;;;;5145933;27;20033;-35
2023/10/17 03:27:37;;;;;;;2.83;2.38;;;9.10;99.90;;;;;;5082967;27;20101;-35
2023/10/17 03:30:14;;;;;;;4.78;3.00;;;9.10;99.90;;;;;;5145427;27;20121;-35
2023/10/17 03:33:02;;;;;;;5.03;2.85;;;9.10;99.90;;;;;;5106007;27;20059;-35
2023/10/17 03:35:31;;;;;;;4.90;2.75;;;9.10;99.90;;;;;;5042341;27;20048;-35
2023/10/17 03:37:56;;;;;;;3.70;2.75;;;9.00;99.90;;;;;;5102043;27;20045;-36
2023/10/17 03:40:30;;;;;;;5.72;2.65;;;9.00;99.90;;;;;;5041112;28;20044;-36
2023/10/17 03:43:11;;;;;;;3.92;2.72;;;9.00;99.90;;;;;;5107580;27;20073;-36
2023/10/17 03:45:43;;;;;;;5.88;2.58;;;9.00;99.90;;;;;;5041059;28;20029;-36
2023/10/17 03:48:15;;;;;;;4.63;2.90;;;9.00;99.90;;;;;;5105726;27;20045;-34
2023/10/17 03:53:15;;;;;;;5.40;2.50;;;9.00;99.90;;;;;;5105333;27;20037;-36
2023/10/17 03:55:48;;;;;;;4.30;2.78;;;8.90;99.90;;;;;;5052228;27;20520;-37
2023/10/17 04:01:07;;;;;;;3.22;2.88;;;9.00;99.90;;;;;;5145425;27;20031;-36
2023/10/17 04:03:35;;;;;;;3.30;2.30;;;9.00;99.90;;;;;;5080501;27;20021;-36
2023/10/17 04:08:37;;;;;;;4.38;2.88;;;9.00;99.90;;;;;;5079958;27;20029;-36
2023/10/17 04:11:17;;;;;;;4.47;2.65;;;9.00;99.90;;;;;;5145612;27;20037;-35
2023/10/17 04:13:50;;;;;;;3.28;2.97;;;8.90;99.90;;;;;;5079266;27;20029;-35
2023/10/17 04:16:26;;;;;;;;;;;8.90;99.90;;;;;;5145463;27;20431;-36
2023/10/17 04:18:59;;;;;;;4.60;3.15;;;9.00;99.90;;;;;;5079652;27;19999;-35
2023/10/17 04:21:30;;;;;;;3.92;2.92;;;8.90;99.90;;;;;;5144864;27;20025;-36
2023/10/17 04:23:59;;;;;;;3.50;3.20;;;8.90;99.90;;;;;;5080161;27;20101;-36
2023/10/17 04:26:28;;;;;;;3.00;2.70;;;8.90;99.90;;;;;;5145763;27;20747;-36
2023/10/17 04:29:00;;;;;;;3.75;2.70;;;8.90;99.90;;;;;;5088781;27;20061;-37
2023/10/17 04:31:28;;;;;;;;;;;8.90;99.90;;;;;;5141324;27;20070;-34
2023/10/17 04:33:56;;;;;;;3.35;2.80;;;8.90;99.90;;;;;;5096135;27;19909;-36
2023/10/17 04:36:23;;;;;;;6.50;4.13;;;8.90;99.90;;;;;;5129304;27;20043;-37
2023/10/17 04:39:10;;;;;;;6.75;4.10;;;8.90;99.90;;;;;;5108646;27;20074;-36
2023/10/17 04:44:50;;;;;;;4.55;3.55;;;8.90;99.90;;;;;;5094074;27;20037;-35
2023/10/17 04:47:26;;;;;;;4.93;3.67;;;8.90;99.90;;;;;;5020731;28;20018;-36
2023/10/17 04:49:55;;;;;;;5.43;3.75;;;8.80;99.90;;;;;;5102245;27;20850;-36
2023/10/17 04:52:28;;;;;;;4.28;2.97;;;8.80;99.90;;;;;;5039884;28;20036;-34
2023/10/17 04:54:54;;;;;;;5.88;3.55;;;8.80;99.90;;;;;;5102065;27;20034;-36
2023/10/17 04:57:21;;;;;;;7.03;3.85;;;8.80;99.90;;;;;;5121516;27;20027;-36
2023/10/17 05:08:11;;;;;;;5.88;3.95;;;8.80;99.90;;;;;;5130180;27;20150;-36
2023/10/17 06:18:57;;;;;;;18.30;11.43;;;8.40;99.90;;;;;;5083364;27;20045;-35
2023/10/17 06:21:38;;;;;;;16.40;11.23;;;8.40;99.90;;;;;;5139080;27;20025;-35
2023/10/17 06:27:12;;;;;;;16.67;11.95;;;8.40;99.90;;;;;;5135970;27;20030;-35
2023/10/17 06:34:34;;;;;;;14.85;10.63;;;8.30;99.90;;;;;;5099117;27;20098;-35
2023/10/17 06:37:07;;;;;;;13.10;10.40;;;8.30;99.90;;;;;;5139785;27;20857;-35
2023/10/17 06:39:45;;;;;;;15.93;10.20;;;8.30;99.90;;;;;;5079246;27;20031;-35
2023/10/17 06:42:29;;;;;;;12.23;10.15;;;8.30;99.90;;;;;;5128317;27;20025;-34
2023/10/17 06:45:01;;;;;;;13.35;9.95;;;8.30;99.90;;;;;;5089889;27;20134;-36
2023/10/17 06:47:41;;;;;;;14.63;10.53;;;8.30;99.90;;;;;;5139357;27;20095;-37
2023/10/17 06:50:17;;;;;;;15.00;9.50;;;8.30;99.90;;;;;;5075996;27;20033;-36
2023/10/17 06:55:28;;;;;;;14.13;10.45;;;8.30;99.90;;;;;;5099411;27;20027;-39
2023/10/17 06:58:08;;;;;;;15.48;9.88;;;8.30;99.90;;;;;;5061979;27;20021;-35
2023/10/17 07:00:51;;;;;;;11.80;9.60;;;8.30;99.90;;;;;;5097008;27;20030;-36
2023/10/17 07:03:24;;;;;;;10.05;8.10;;;8.30;99.90;;;;;;5123790;27;20390;-35
2023/10/17 07:05:50;;;;;;;9.65;8.05;;;8.30;99.90;;;;;;5108682;27;20054;-35
2023/10/17 07:08:22;;;;;;;11.93;8.40;;;8.30;99.90;;;;;;5131865;27;20030;-35
2023/10/17 07:11:05;;;;;;;9.18;7.65;;;8.30;99.90;;;;;;5098729;27;20026;-36
2023/10/17 07:16:33;;;;;;;9.27;7.22;;;8.30;99.90;;;;;;5122237;27;20035;-36
2023/10/17 07:22:08;;;;;;;10.45;7.20;;;8.30;99.90;;;;;;5127389;27;20153;-35
2023/10/17 07:24:53;;;;;;;11.32;7.60;;;8.30;99.90;;;;;;5098728;27;20087;-36
2023/10/17 07:27:19;;;;;;;9.82;6.72;;;8.40;99.90;;;;;;5140739;27;20065;-35
2023/10/17 07:29:52;;;;;;;6.95;5.90;;;8.40;99.90;;;;;;5097797;27;20119;-36
2023/10/17 07:32:17;;;;;;;8.60;6.78;;;8.40;99.90;;;;;;5133353;27;20105;-36
2023/10/17 07:34:44;;;;;;;12.10;7.45;;;8.50;99.90;;;;;;5106740;27;20104;-37
2023/10/17 07:37:33;;;;;;;8.45;7.00;;;8.50;99.90;;;;;;5118909;27;20149;-36
2023/10/17 07:42:42;;;;;;;7.93;6.70;;;8.60;99.90;;;;;;5131973;27;20509;-36
2023/10/17 07:45:17;;;;;;;7.38;6.35;;;8.60;99.90;;;;;;5124439;27;20109;-36
2023/10/17 07:47:51;;;;;;;9.77;7.57;;;8.70;99.90;;;;;;5057753;27;20032;-36
2023/10/17 07:50:17;;;;;;;8.05;6.88;;;8.70;99.90;;;;;;5081698;27;20770;-36
2023/10/17 07:52:43;;;;;;;9.65;7.53;;;8.70;99.90;;;;;;5064509;27;20070;-35
2023/10/17 07:55:23;;;;;;;8.73;7.13;;;8.80;99.90;;;;;;5068556;27;20022;-37
2023/10/17 07:58:35;;;;;;;10.57;8.15;;;8.80;99.90;;;;;;5055770;27;20460;-36
2023/10/17 08:00:37;;;;;;;15.07;8.88;;;8.80;99.90;;;;;;5084319;27;20182;-36
2023/10/17 08:03:09;;;;;;;14.05;9.20;;;8.90;99.90;;;;;;5064970;27;20072;-35
2023/10/17 08:06:22;;;;;;;12.05;9.10;;;8.90;99.90;;;;;;5072774;27;20014;-36
2023/10/17 08:08:33;;;;;;;14.88;10.35;;;8.90;99.90;;;;;;5054224;27;20067;-35
2023/10/17 08:10:59;;;;;;;11.82;9.13;;;9.00;99.90;;;;;;5082683;27;20041;-36
2023/10/17 08:13:28;;;;;;;11.80;9.48;;;9.00;99.90;;;;;;5063907;27;20156;-35
2023/10/17 08:16:07;;;;;;;14.73;9.70;;;9.00;99.90;;;;;;5072144;27;20093;-36
2023/10/17 08:18:39;;;;;;;12.75;9.15;;;9.10;99.90;;;;;;5066484;27;20017;-35
2023/10/17 08:23:50;;;;;;;12.77;9.10;;;9.20;99.90;;;;;;5061849;27;19922;-35
2023/10/17 08:26:20;;;;;;;10.65;8.70;;;9.20;99.90;;;;;;5071748;27;20528;-35
2023/10/17 08:28:46;;;;;;;12.43;8.75;;;9.20;99.90;;;;;;5071792;27;20029;-36
2023/10/17 08:36:47;;;;;;;12.60;9.63;;;9.40;99.90;;;;;;5062752;27;20080;-37
2023/10/17 08:41:57;;;;;;;14.57;10.95;;;9.40;99.90;;;;;;5097554;27;20137;-38
2023/10/17 08:44:29;;;;;;;15.73;11.10;;;9.50;99.90;;;;;;5123093;27;20019;-37
2023/10/17 08:47:04;;;;;;;15.98;11.60;;;9.50;99.90;;;;;;5120069;27;20024;-36
2023/10/17 08:49:31;;;;;;;14.82;11.25;;;9.50;99.90;;;;;;5121717;27;20069;-36
2023/10/17 08:51:58;;;;;;;15.48;10.73;;;9.50;99.90;;;;;;5125378;27;20025;-37
2023/10/17 08:54:30;;;;;;;12.52;9.52;;;9.60;99.90;;;;;;5107713;27;20027;-36
2023/10/17 08:57:03;;;;;;;14.07;10.55;;;9.60;99.90;;;;;;5115159;27;20021;-36
2023/10/17 09:05:10;;;;;;;8.65;7.35;;;9.70;99.90;;;;;;5150011;27;20502;-36
2023/10/17 09:07:43;;;;;;;10.50;7.88;;;9.80;99.90;;;;;;5116256;27;20032;-35
2023/10/17 09:10:17;;;;;;;10.75;8.40;;;9.80;99.90;;;;;;5117006;27;20038;-35
2023/10/17 09:12:43;;;;;;;10.43;8.38;;;9.90;99.90;;;;;;5121938;27;20097;-36
2023/10/17 09:15:27;;;;;;;11.13;8.70;;;10.00;99.90;;;;;;5109576;27;20060;-35
2023/10/17 09:18:08;;;;;;;12.25;9.55;;;10.00;99.90;;;;;;5122105;27;20357;-37
2023/10/17 09:20:39;;;;;;;13.90;9.20;;;10.10;99.90;;;;;;5121463;27;20078;-36
2023/10/17 09:23:28;;;;;;;10.85;8.57;;;10.10;99.90;;;;;;5119784;27;20756;-36
2023/10/17 09:25:57;;;;;;;10.68;9.02;;;10.20;99.90;;;;;;5128071;27;20089;-35
2023/10/17 09:28:25;;;;;;;10.45;7.70;;;10.20;99.90;;;;;;5114933;27;20057;-36
2023/10/17 09:31:03;;;;;;;10.93;7.65;;;10.30;99.90;;;;;;5117304;27;20393;-34
2023/10/17 09:33:33;;;;;;;10.77;8.10;;;10.30;99.90;;;;;;5118315;27;20039;-36
2023/10/17 09:36:04;;;;;;;11.48;8.50;;;10.40;99.90;;;;;;5115777;27;20043;-35
2023/10/17 09:38:34;;;;;;;9.13;7.72;;;10.50;99.90;;;;;;5124941;27;20033;-36
2023/10/17 09:41:06;;;;;;;9.13;6.95;;;10.50;99.90;;;;;;5108490;27;20046;-36
2023/10/17 09:43:31;;;;;;;7.32;6.50;;;10.60;99.90;;;;;;5130230;27;20473;-35
2023/10/17 09:46:09;;;;;;;7.20;6.07;;;10.70;99.90;;;;;;5098943;27;20033;-36
2023/10/17 09:48:36;;;;;;;7.75;6.32;;;10.70;99.90;;;;;;5136067;27;20046;-36
2023/10/17 09:51:03;;;;;;;11.15;6.93;;;10.80;99.90;;;;;;5093698;27;20534;-37
2023/10/17 09:53:34;;;;;;;11.48;8.00;;;10.90;99.90;;;;;;5140849;27;20023;-37
2023/10/17 09:56:16;;;;;;;10.90;7.68;;;11.00;99.90;;;;;;5086350;27;20164;-36
2023/10/17 09:58:48;;;;;;;9.25;7.03;;;11.00;99.90;;;;;;5049891;27;20035;-36
2023/10/17 10:01:20;;;;;;;10.50;6.95;;;11.10;99.90;;;;;;5101781;27;20044;-36
2023/10/17 10:04:03;;;;;;;8.80;6.60;;;11.10;99.90;;;;;;5050162;27;20399;-37
2023/10/17 10:06:32;;;;;;;10.98;6.80;;;11.10;99.90;;;;;;5080136;27;20025;-36
2023/10/17 10:09:01;;;;;;;10.55;7.88;;;11.20;99.90;;;;;;5140595;27;20051;-36
2023/10/17 10:11:48;;;;;;;9.52;7.25;;;11.20;99.90;;;;;;5088766;27;20033;-36
2023/10/17 10:14:15;;;;;;;11.68;7.22;;;11.20;99.90;;;;;;5139724;27;20900;-36
2023/10/17 10:16:54;;;;;;;7.65;6.22;;;11.20;99.90;;;;;;5088736;27;20067;-36
2023/10/17 10:19:40;;;;;;;7.10;5.93;;;11.20;99.90;;;;;;5139180;27;20025;-36
2023/10/17 10:22:07;;;;;;;11.00;6.93;;;11.20;99.90;;;;;;5075843;27;20023;-37
2023/10/17 10:24:36;;;;;;;6.22;5.63;;;11.30;99.90;;;;;;5115696;27;20031;-37
2023/10/17 10:27:23;;;;;;;8.07;6.07;;;11.30;99.90;;;;;;5100612;27;20017;-36
2023/10/17 10:30:17;;;;;;;6.97;5.82;;;11.30;99.90;;;;;;5049837;27;20033;-36
2023/10/17 10:32:44;;;;;;;8.80;6.63;;;11.40;99.90;;;;;;5099637;27;20062;-35
2023/10/17 10:35:14;;;;;;;7.38;6.68;;;11.50;99.90;;;;;;5134570;27;20079;-36
2023/10/17 10:37:52;;;;;;;10.13;7.35;;;11.50;99.90;;;;;;5099229;27;20050;-36
2023/10/17 10:40:22;;;;;;;9.98;7.38;;;11.50;99.90;;;;;;5134899;27;20448;-35
2023/10/17 10:43:04;;;;;;;8.32;6.60;;;11.50;99.90;;;;;;5095806;27;20022;-35
2023/10/17 10:46:10;;;;;;;7.77;6.40;;;11.50;99.90;;;;;;5135085;27;20030;-35
2023/10/17 10:48:32;;;;;;;7.75;5.90;;;11.50;99.90;;;;;;5116807;27;20280;-36
2023/10/17 10:51:00;;;;;;;6.05;5.20;;;11.60;99.90;;;;;;5120068;27;20131;-36
2023/10/17 10:53:31;;;;;;;5.90;4.80;;;11.60;99.90;;;;;;5107986;27;20077;-36
2023/10/17 10:56:00;;;;;;;6.00;4.43;;;11.60;99.90;;;;;;5128943;27;20053;-36
2023/10/17 10:58:27;;;;;;;5.70;4.65;;;11.70;99.90;;;;;;5021853;28;20134;-36
2023/10/17 11:00:58;;;;;;;4.40;4.00;;;11.80;99.90;;;;;;5056656;27;20059;-36
2023/10/17 11:03:24;;;;;;;8.75;5.30;;;11.90;99.90;;;;;;5080531;27;20077;-35
2023/10/17 11:06:04;;;;;;;6.18;4.97;;;12.00;99.90;;;;;;5139201;27;20095;-36
2023/10/17 11:08:43;;;;;;;6.38;4.63;;;12.00;99.90;;;;;;5076591;27;20073;-36
2023/10/17 11:11:15;;;;;;;5.20;4.47;;;12.10;99.90;;;;;;5138631;27;20800;-37
2023/10/17 11:13:45;;;;;;;7.47;4.38;;;12.10;99.90;;;;;;5077899;27;20033;-36
2023/10/17 11:16:12;;;;;;;6.28;4.63;;;12.10;99.90;;;;;;5137909;27;20025;-36
2023/10/17 11:18:44;;;;;;;9.25;5.25;;;12.10;99.90;;;;;;5087395;27;20034;-35
2023/10/17 11:21:10;;;;;;;5.13;4.45;;;12.10;99.90;;;;;;5138342;27;20032;-36
2023/10/17 11:23:40;;;;;;;6.93;4.88;;;12.10;99.90;;;;;;5087190;27;20021;-37
2023/10/17 11:26:14;;;;;;;7.00;5.80;;;12.20;99.90;;;;;;5145079;27;20474;-36
2023/10/17 11:28:52;;;;;;;6.22;4.93;;;12.20;99.90;;;;;;5084413;27;20023;-36
2023/10/17 11:31:25;;;;;;;6.03;4.70;;;12.10;99.90;;;;;;5144677;27;20042;-36
2023/10/17 11:34:04;;;;;;;6.72;4.10;;;12.10;99.90;;;;;;5061339;28;20425;-36
2023/10/17 11:36:36;;;;;;;3.97;3.55;;;12.10;99.90;;;;;;5060791;28;20119;-36
2023/10/17 11:39:05;;;;;;;;;;;12.10;99.90;;;;;;5060660;28;20471;-36
2023/10/17 11:41:39;;;;;;;7.38;3.90;;;12.10;99.90;;;;;;5061206;28;19916;-36
2023/10/17 11:44:05;;;;;;;6.15;4.28;;;12.10;99.90;;;;;;5060907;28;20077;-34
2023/10/17 11:46:32;;;;;;;6.65;4.32;;;12.20;99.90;;;;;;5061303;28;20024;-36
2023/10/17 11:49:30;;;;;;;5.00;4.50;;;12.20;99.90;;;;;;5060757;28;20136;-36
2023/10/17 11:52:09;;;;;;;6.80;4.63;;;12.20;99.90;;;;;;5060486;28;20059;-36
2023/10/17 11:54:53;;;;;;;5.72;4.38;;;12.20;99.90;;;;;;5060639;28;20064;-35
2023/10/17 11:57:23;;;;;;;8.95;4.57;;;12.20;99.90;;;;;;5059826;28;20108;-36
2023/10/17 12:02:47;;;;;;;6.72;4.30;;;12.20;99.90;;;;;;5061093;28;20033;-36
2023/10/17 12:05:22;;;;;;;6.00;4.35;;;12.20;99.90;;;;;;5060189;28;20071;-36
2023/10/17 12:07:53;;;;;;;6.25;4.10;;;12.20;99.90;;;;;;5060798;28;20472;-36
2023/10/17 12:10:20;;;;;;;6.90;4.30;;;12.30;99.90;;;;;;5061018;28;20017;-36
2023/10/17 12:12:46;;;;;;;5.50;4.18;;;12.30;99.90;;;;;;5059656;28;20040;-36
2023/10/17 12:15:17;;;;;;;4.43;3.70;;;12.30;99.90;;;;;;5059870;28;20082;-36
2023/10/17 12:17:44;;;;;;;3.92;3.22;;;12.40;99.90;;;;;;5060592;28;20102;-36
2023/10/17 12:20:13;;;;;;;4.43;3.08;;;12.40;99.90;;;;;;5059418;28;20028;-36
2023/10/17 12:22:41;;;;;;;4.63;2.85;;;12.40;99.90;;;;;;5060561;28;20485;-37
2023/10/17 12:25:16;;;;;;;4.50;2.72;;;12.50;99.90;;;;;;5059438;28;20025;-35
2023/10/17 12:27:41;;;;;;;3.65;3.30;;;12.50;99.90;;;;;;5060042;28;20219;-36
2023/10/17 12:30:11;;;;;;;4.30;3.50;;;12.60;99.90;;;;;;5059619;28;20456;-36
2023/10/17 12:32:37;;;;;;;5.07;3.13;;;12.60;99.90;;;;;;5039379;28;20052;-34
2023/10/17 12:35:11;;;;;;;6.65;2.97;;;12.60;99.90;;;;;;5054440;28;20028;-35
2023/10/17 12:37:43;;;;;;;3.45;2.90;;;12.70;99.90;;;;;;5060913;28;20039;-37
2023/10/17 12:40:18;;;;;;;4.05;3.00;;;12.70;99.90;;;;;;5059386;28;20472;-35
2023/10/17 12:42:47;;;;;;;3.53;2.35;;;12.70;99.90;;;;;;5059881;28;20547;-36
2023/10/17 12:45:17;;;;;;;3.15;2.55;;;12.70;99.90;;;;;;5046245;28;20025;-36
2023/10/17 12:47:46;;;;;;;2.33;2.13;;;12.70;99.90;;;;;;5046218;28;20029;-36
2023/10/17 12:50:15;;;;;;;4.68;2.50;;;12.80;99.90;;;;;;5046353;28;20124;-36
2023/10/17 12:52:41;;;;;;;3.90;2.95;;;12.80;99.90;;;;;;5046257;28;20387;-36
2023/10/17 12:55:12;;;;;;;3.33;2.95;;;12.90;99.90;;;;;;5045330;28;20020;-35
2023/10/17 12:57:39;;;;;;;4.22;2.70;;;12.90;99.90;;;;;;5046696;28;20478;-35
2023/10/17 13:00:09;;;;;;;4.15;2.95;;;12.90;99.90;;;;;;5046209;28;20025;-36
2023/10/17 13:02:38;;;;;;;5.18;3.20;;;12.90;99.90;;;;;;5045910;28;20043;-35
2023/10/17 13:05:11;;;;;;;5.95;3.38;;;12.90;99.90;;;;;;5045626;28;20032;-36
2023/10/17 13:07:40;;;;;;;3.97;2.90;;;12.90;99.90;;;;;;5045836;28;20029;-36
2023/10/17 13:10:07;;;;;;;5.82;3.10;;;12.90;99.90;;;;;;5044972;28;20025;-36
2023/10/17 13:12:44;;;;;;;6.57;4.07;;;12.90;99.90;;;;;;5046159;28;20082;-35
2023/10/17 13:15:14;;;;;;;5.50;3.53;;;12.90;99.90;;;;;;5045083;28;20017;-36
2023/10/17 13:17:41;;;;;;;3.45;2.60;;;12.90;99.90;;;;;;5045637;28;20054;-35
2023/10/17 13:20:14;;;;;;;2.72;2.40;;;12.90;99.90;;;;;;5045703;28;20084;-36
2023/10/17 13:22:49;;;;;;;3.42;2.20;;;12.90;99.90;;;;;;5045295;28;20036;-36
2023/10/17 13:25:18;;;;;;;3.67;2.78;;;12.90;99.90;;;;;;5045379;28;20096;-33
2023/10/17 13:27:44;;;;;;;2.72;2.00;;;13.00;99.90;;;;;;5042678;28;20044;-34
2023/10/17 13:30:09;;;;;;;2.35;2.10;;;12.90;99.90;;;;;;5044339;28;20036;-36
2023/10/17 13:32:35;;;;;;;4.15;2.10;;;12.90;99.90;;;;;;5045088;28;20048;-35
2023/10/17 13:35:01;;;;;;;4.60;2.50;;;13.00;99.90;;;;;;5045660;28;20680;-34
2023/10/17 13:37:27;;;;;;;4.07;2.78;;;13.00;99.90;;;;;;5044944;28;20032;-36
2023/10/17 13:39:53;;;;;;;4.82;2.92;;;13.00;99.90;;;;;;5045542;28;20032;-36
2023/10/17 13:42:19;;;;;;;4.38;2.63;;;13.00;99.90;;;;;;5045114;28;20476;-36
2023/10/17 13:44:44;;;;;;;2.88;2.08;;;13.00;99.90;;;;;;5045102;28;20032;-36
2023/10/17 13:47:10;;;;;;;4.32;2.60;;;13.00;99.90;;;;;;5044964;28;20075;-36
2023/10/17 13:49:35;;;;;;;3.15;2.20;;;13.00;99.90;;;;;;5044884;28;20031;-36
2023/10/17 13:52:03;;;;;;;4.43;2.95;;;13.00;99.90;;;;;;5045040;28;20029;-35
2023/10/17 13:54:34;;;;;;;4.43;2.78;;;13.00;99.90;;;;;;5045612;28;20033;-35
2023/10/17 13:57:00;;;;;;;4.07;2.92;;;13.00;99.90;;;;;;5042390;28;20029;-35
2023/10/17 13:59:38;;;;;;;2.53;2.25;;;13.00;99.90;;;;;;5045550;28;20032;-36
2023/10/17 14:02:08;;;;;;;3.80;2.60;;;13.00;99.90;;;;;;5045193;28;20025;-35
2023/10/17 14:04:36;;;;;;;3.97;2.90;;;13.00;99.90;;;;;;5044604;28;20021;-37
2023/10/17 14:07:06;;;;;;;4.10;2.63;;;13.00;99.90;;;;;;5044421;28;20043;-35
2023/10/17 14:09:32;;;;;;;3.15;2.33;;;13.00;99.90;;;;;;5033987;28;20131;-36
2023/10/17 14:11:58;;;;;;;2.60;2.20;;;13.00;99.90;;;;;;5044314;28;20029;-37
2023/10/17 14:14:29;;;;;;;3.30;1.85;;;13.00;99.90;;;;;;5045027;28;20039;-42
2023/10/17 14:16:58;;;;;;;5.57;1.95;;;13.00;99.90;;;;;;5045359;28;20518;-35
2023/10/17 14:22:21;;;;;;;4.65;2.90;;;12.90;99.90;;;;;;5044576;28;20095;-36
2023/10/17 14:24:50;;;;;;;3.35;2.42;;;12.90;99.90;;;;;;5042595;28;20021;-37
2023/10/17 14:27:34;;;;;;;4.10;2.50;;;12.90;99.90;;;;;;5044805;28;20025;-37
2023/10/17 14:30:00;;;;;;;2.35;1.95;;;12.90;99.90;;;;;;5042335;28;20467;-37
2023/10/17 14:32:28;;;;;;;3.85;2.70;;;12.90;99.90;;;;;;5043593;28;20075;-35
2023/10/17 14:34:56;;;;;;;2.88;2.15;;;12.90;99.90;;;;;;5044265;28;20230;-36
2023/10/17 14:37:23;;;;;;;3.00;2.00;;;12.90;99.90;;;;;;5044974;28;20085;-36
2023/10/17 14:39:52;;;;;;;4.95;3.03;;;12.90;99.90;;;;;;5044643;28;20017;-35
2023/10/17 14:42:21;;;;;;;3.58;2.50;;;12.90;99.90;;;;;;5044185;28;20407;-34
2023/10/17 14:44:47;;;;;;;3.13;2.70;;;12.90;99.90;;;;;;5045313;28;20048;-36
2023/10/17 14:47:17;;;;;;;3.60;2.28;;;12.90;99.90;;;;;;5043774;28;20087;-36
2023/10/17 14:49:43;;;;;;;3.78;2.20;;;12.90;99.90;;;;;;5044271;28;20098;-36
2023/10/17 14:52:11;;;;;;;3.83;2.65;;;12.90;99.90;;;;;;5044181;28;20029;-35
2023/10/17 14:54:37;;;;;;;3.65;2.28;;;12.90;99.90;;;;;;5043566;28;20040;-36
2023/10/17 14:57:06;;;;;;;3.15;2.45;;;12.90;99.90;;;;;;5043933;28;20035;-36
2023/10/17 14:59:38;;;;;;;4.97;2.58;;;12.90;99.90;;;;;;5044217;28;20057;-35
2023/10/17 15:02:04;;;;;;;4.55;3.13;;;12.90;99.90;;;;;;5043293;28;20033;-35
2023/10/17 15:04:30;;;;;;;3.97;2.58;;;12.90;99.90;;;;;;5044679;28;20017;-36
2023/10/17 15:06:55;;;;;;;5.05;3.13;;;12.90;99.90;;;;;;5043849;28;20108;-36
2023/10/17 15:09:21;;;;;;;4.15;2.90;;;12.90;99.90;;;;;;5044007;28;20075;-36
2023/10/17 15:11:48;;;;;;;4.15;2.90;;;12.80;99.90;;;;;;5044104;28;20116;-35
2023/10/17 15:14:15;;;;;;;3.88;2.67;;;12.80;99.90;;;;;;5042803;28;20151;-35
2023/10/17 15:16:43;;;;;;;3.28;2.95;;;12.80;99.90;;;;;;5043955;28;20029;-35
2023/10/17 15:19:09;;;;;;;4.18;2.95;;;12.80;99.90;;;;;;5043291;28;20082;-35
2023/10/17 15:21:35;;;;;;;3.78;2.33;;;12.70;99.90;;;;;;5042942;28;20021;-36
2023/10/17 15:24:01;;;;;;;3.97;3.08;;;12.80;99.90;;;;;;5043166;28;20508;-35
2023/10/17 15:26:27;;;;;;;3.42;2.55;;;12.70;99.90;;;;;;5043704;28;20017;-36